sensor_id;sensor_type;location;lat;lon;timestamp;P1;durP1;ratioP1;P2;durP2;ratioP2
59390;SDS011;53405;57.012;40.984;2023-03-01T00:01:57;5.65;;;0.80;;
59390;SDS011;53405;57.012;40.984;2023-03-01T00:04:45;1.98;;;0.73;;
59390;SDS011;53405;57.012;40.984;2023-03-01T00:07:33;7.97;;;0.80;;
59390;SDS011;53405;57.012;40.984;2023-03-01T00:10:20;4.57;;;0.90;;
59390;SDS011;53405;57.012;40.984;2023-03-01T00:13:08;2.97;;;0.73;;
59390;SDS011;53405;57.012;40.984;2023-03-01T00:15:56;3.05;;;0.77;;
59390;SDS011;53405;57.012;40.984;2023-03-01T00:18:44;8.25;;;0.70;;
59390;SDS011;53405;57.012;40.984;2023-03-01T00:21:32;2.58;;;0.70;;
59390;SDS011;53405;57.012;40.984;2023-03-01T00:24:21;3.58;;;0.73;;
59390;SDS011;53405;57.012;40.984;2023-03-01T00:27:08;5.55;;;1.42;;
59390;SDS011;53405;57.012;40.984;2023-03-01T00:29:56;4.35;;;0.90;;
59390;SDS011;53405;57.012;40.984;2023-03-01T00:32:43;2.17;;;0.80;;
59390;SDS011;53405;57.012;40.984;2023-03-01T00:35:34;3.05;;;0.90;;
59390;SDS011;53405;57.012;40.984;2023-03-01T00:38:22;1.23;;;0.50;;
59390;SDS011;53405;57.012;40.984;2023-03-01T00:41:10;1.70;;;0.50;;
59390;SDS011;53405;57.012;40.984;2023-03-01T00:44:00;2.05;;;0.70;;
59390;SDS011;53405;57.012;40.984;2023-03-01T00:46:47;3.65;;;0.68;;
59390;SDS011;53405;57.012;40.984;2023-03-01T00:49:35;12.35;;;1.17;;
59390;SDS011;53405;57.012;40.984;2023-03-01T00:52:22;4.72;;;0.80;;
59390;SDS011;53405;57.012;40.984;2023-03-01T00:55:11;3.53;;;0.85;;
59390;SDS011;53405;57.012;40.984;2023-03-01T00:57:59;2.63;;;0.80;;
59390;SDS011;53405;57.012;40.984;2023-03-01T01:00:48;3.20;;;0.80;;
59390;SDS011;53405;57.012;40.984;2023-03-01T01:03:35;3.88;;;0.90;;
59390;SDS011;53405;57.012;40.984;2023-03-01T01:06:24;4.78;;;0.77;;
59390;SDS011;53405;57.012;40.984;2023-03-01T01:09:15;2.50;;;0.70;;
59390;SDS011;53405;57.012;40.984;2023-03-01T01:12:04;4.13;;;1.17;;
59390;SDS011;53405;57.012;40.984;2023-03-01T01:14:52;5.68;;;0.98;;
59390;SDS011;53405;57.012;40.984;2023-03-01T01:17:40;3.63;;;1.00;;
59390;SDS011;53405;57.012;40.984;2023-03-01T01:20:27;2.92;;;0.65;;
59390;SDS011;53405;57.012;40.984;2023-03-01T01:23:15;3.03;;;0.68;;
59390;SDS011;53405;57.012;40.984;2023-03-01T01:26:07;7.18;;;0.95;;
59390;SDS011;53405;57.012;40.984;2023-03-01T01:28:56;3.80;;;0.77;;
59390;SDS011;53405;57.012;40.984;2023-03-01T01:31:44;2.97;;;0.60;;
59390;SDS011;53405;57.012;40.984;2023-03-01T01:34:32;2.95;;;0.85;;
59390;SDS011;53405;57.012;40.984;2023-03-01T01:37:19;2.45;;;0.80;;
59390;SDS011;53405;57.012;40.984;2023-03-01T01:40:08;3.38;;;0.80;;
59390;SDS011;53405;57.012;40.984;2023-03-01T01:42:57;3.83;;;0.70;;
59390;SDS011;53405;57.012;40.984;2023-03-01T01:45:45;2.60;;;0.70;;
59390;SDS011;53405;57.012;40.984;2023-03-01T01:48:43;2.85;;;0.85;;
59390;SDS011;53405;57.012;40.984;2023-03-01T01:51:38;2.67;;;0.82;;
59390;SDS011;53405;57.012;40.984;2023-03-01T01:57:33;6.88;;;1.02;;
59390;SDS011;53405;57.012;40.984;2023-03-01T02:00:26;2.63;;;0.70;;
59390;SDS011;53405;57.012;40.984;2023-03-01T02:03:17;4.57;;;0.80;;
59390;SDS011;53405;57.012;40.984;2023-03-01T02:09:16;4.57;;;0.77;;
59390;SDS011;53405;57.012;40.984;2023-03-01T02:12:07;7.88;;;1.05;;
59390;SDS011;53405;57.012;40.984;2023-03-01T02:14:54;5.50;;;0.95;;
59390;SDS011;53405;57.012;40.984;2023-03-01T02:17:42;2.28;;;0.75;;
59390;SDS011;53405;57.012;40.984;2023-03-01T02:23:25;5.28;;;1.02;;
59390;SDS011;53405;57.012;40.984;2023-03-01T02:29:05;5.80;;;0.95;;
59390;SDS011;53405;57.012;40.984;2023-03-01T02:31:53;4.90;;;1.33;;
59390;SDS011;53405;57.012;40.984;2023-03-01T02:34:45;5.38;;;0.90;;
59390;SDS011;53405;57.012;40.984;2023-03-01T02:37:33;5.07;;;1.20;;
59390;SDS011;53405;57.012;40.984;2023-03-01T02:40:22;3.72;;;0.80;;
59390;SDS011;53405;57.012;40.984;2023-03-01T02:43:10;4.97;;;1.00;;
59390;SDS011;53405;57.012;40.984;2023-03-01T02:46:08;4.50;;;1.30;;
59390;SDS011;53405;57.012;40.984;2023-03-01T02:49:16;6.30;;;1.38;;
59390;SDS011;53405;57.012;40.984;2023-03-01T02:55:16;3.28;;;0.73;;
59390;SDS011;53405;57.012;40.984;2023-03-01T02:58:04;3.93;;;0.77;;
59390;SDS011;53405;57.012;40.984;2023-03-01T03:00:53;3.43;;;0.80;;
59390;SDS011;53405;57.012;40.984;2023-03-01T03:03:41;6.18;;;0.98;;
59390;SDS011;53405;57.012;40.984;2023-03-01T03:06:30;3.28;;;0.70;;
59390;SDS011;53405;57.012;40.984;2023-03-01T03:09:18;3.88;;;0.82;;
59390;SDS011;53405;57.012;40.984;2023-03-01T03:12:06;4.63;;;0.70;;
59390;SDS011;53405;57.012;40.984;2023-03-01T03:14:54;3.85;;;0.82;;
59390;SDS011;53405;57.012;40.984;2023-03-01T03:17:41;5.53;;;1.00;;
59390;SDS011;53405;57.012;40.984;2023-03-01T03:20:31;3.03;;;0.80;;
59390;SDS011;53405;57.012;40.984;2023-03-01T03:23:20;5.28;;;1.10;;
59390;SDS011;53405;57.012;40.984;2023-03-01T03:26:08;2.47;;;0.60;;
59390;SDS011;53405;57.012;40.984;2023-03-01T03:28:58;6.05;;;1.17;;
59390;SDS011;53405;57.012;40.984;2023-03-01T03:31:45;2.53;;;0.75;;
59390;SDS011;53405;57.012;40.984;2023-03-01T03:34:33;3.33;;;0.85;;
59390;SDS011;53405;57.012;40.984;2023-03-01T03:37:21;4.97;;;1.20;;
59390;SDS011;53405;57.012;40.984;2023-03-01T03:40:44;2.53;;;0.85;;
59390;SDS011;53405;57.012;40.984;2023-03-01T03:43:34;2.58;;;0.90;;
59390;SDS011;53405;57.012;40.984;2023-03-01T03:49:11;7.18;;;1.10;;
59390;SDS011;53405;57.012;40.984;2023-03-01T03:51:58;6.65;;;1.38;;
59390;SDS011;53405;57.012;40.984;2023-03-01T03:54:46;5.10;;;0.95;;
59390;SDS011;53405;57.012;40.984;2023-03-01T03:57:33;4.45;;;1.20;;
59390;SDS011;53405;57.012;40.984;2023-03-01T04:00:21;6.47;;;1.40;;
59390;SDS011;53405;57.012;40.984;2023-03-01T04:03:11;5.53;;;1.27;;
59390;SDS011;53405;57.012;40.984;2023-03-01T04:06:01;7.15;;;1.48;;
59390;SDS011;53405;57.012;40.984;2023-03-01T04:08:48;3.80;;;1.27;;
59390;SDS011;53405;57.012;40.984;2023-03-01T04:11:38;5.50;;;1.52;;
59390;SDS011;53405;57.012;40.984;2023-03-01T04:14:25;4.43;;;1.38;;
59390;SDS011;53405;57.012;40.984;2023-03-01T04:17:14;9.38;;;2.40;;
59390;SDS011;53405;57.012;40.984;2023-03-01T04:20:01;5.35;;;1.83;;
59390;SDS011;53405;57.012;40.984;2023-03-01T04:22:55;9.40;;;2.20;;
59390;SDS011;53405;57.012;40.984;2023-03-01T04:25:58;6.13;;;1.85;;
59390;SDS011;53405;57.012;40.984;2023-03-01T04:28:46;4.78;;;1.63;;
59390;SDS011;53405;57.012;40.984;2023-03-01T04:34:23;10.40;;;2.50;;
59390;SDS011;53405;57.012;40.984;2023-03-01T04:37:13;8.30;;;2.45;;
59390;SDS011;53405;57.012;40.984;2023-03-01T04:40:03;6.80;;;2.08;;
59390;SDS011;53405;57.012;40.984;2023-03-01T04:45:51;7.53;;;2.40;;
59390;SDS011;53405;57.012;40.984;2023-03-01T04:48:40;5.80;;;2.20;;
59390;SDS011;53405;57.012;40.984;2023-03-01T04:51:29;7.32;;;2.47;;
59390;SDS011;53405;57.012;40.984;2023-03-01T04:54:16;11.00;;;3.45;;
59390;SDS011;53405;57.012;40.984;2023-03-01T04:57:04;12.80;;;3.33;;
59390;SDS011;53405;57.012;40.984;2023-03-01T04:59:52;7.47;;;2.72;;
59390;SDS011;53405;57.012;40.984;2023-03-01T05:02:40;15.30;;;5.20;;
59390;SDS011;53405;57.012;40.984;2023-03-01T05:05:30;10.65;;;3.58;;
59390;SDS011;53405;57.012;40.984;2023-03-01T05:08:19;7.53;;;1.58;;
59390;SDS011;53405;57.012;40.984;2023-03-01T05:11:08;11.18;;;3.10;;
59390;SDS011;53405;57.012;40.984;2023-03-01T05:13:56;10.07;;;3.33;;
59390;SDS011;53405;57.012;40.984;2023-03-01T05:16:44;14.73;;;4.05;;
59390;SDS011;53405;57.012;40.984;2023-03-01T05:19:32;16.55;;;5.40;;
59390;SDS011;53405;57.012;40.984;2023-03-01T05:22:21;17.83;;;5.35;;
59390;SDS011;53405;57.012;40.984;2023-03-01T05:25:10;13.57;;;4.60;;
59390;SDS011;53405;57.012;40.984;2023-03-01T05:27:58;11.73;;;3.38;;
59390;SDS011;53405;57.012;40.984;2023-03-01T05:30:51;8.05;;;2.45;;
59390;SDS011;53405;57.012;40.984;2023-03-01T05:33:40;8.38;;;2.80;;
59390;SDS011;53405;57.012;40.984;2023-03-01T05:36:29;4.60;;;1.60;;
59390;SDS011;53405;57.012;40.984;2023-03-01T05:39:17;7.35;;;1.90;;
59390;SDS011;53405;57.012;40.984;2023-03-01T05:42:04;8.20;;;2.30;;
59390;SDS011;53405;57.012;40.984;2023-03-01T05:44:52;7.35;;;1.92;;
59390;SDS011;53405;57.012;40.984;2023-03-01T05:47:40;6.15;;;1.77;;
59390;SDS011;53405;57.012;40.984;2023-03-01T05:50:33;5.93;;;1.90;;
59390;SDS011;53405;57.012;40.984;2023-03-01T05:53:26;7.13;;;1.80;;
59390;SDS011;53405;57.012;40.984;2023-03-01T05:56:13;5.10;;;1.48;;
59390;SDS011;53405;57.012;40.984;2023-03-01T05:59:01;6.85;;;1.77;;
59390;SDS011;53405;57.012;40.984;2023-03-01T06:01:50;7.45;;;1.75;;
59390;SDS011;53405;57.012;40.984;2023-03-01T06:04:37;5.38;;;1.67;;
59390;SDS011;53405;57.012;40.984;2023-03-01T06:07:25;6.60;;;1.70;;
59390;SDS011;53405;57.012;40.984;2023-03-01T06:10:19;4.82;;;1.23;;
59390;SDS011;53405;57.012;40.984;2023-03-01T06:15:55;6.32;;;1.60;;
59390;SDS011;53405;57.012;40.984;2023-03-01T06:18:43;4.88;;;1.35;;
59390;SDS011;53405;57.012;40.984;2023-03-01T06:21:30;7.00;;;1.55;;
59390;SDS011;53405;57.012;40.984;2023-03-01T06:24:18;3.15;;;1.35;;
59390;SDS011;53405;57.012;40.984;2023-03-01T06:27:06;7.00;;;1.50;;
59390;SDS011;53405;57.012;40.984;2023-03-01T06:29:54;6.20;;;1.17;;
59390;SDS011;53405;57.012;40.984;2023-03-01T06:32:43;8.63;;;1.63;;
59390;SDS011;53405;57.012;40.984;2023-03-01T06:35:30;6.05;;;1.60;;
59390;SDS011;53405;57.012;40.984;2023-03-01T06:38:18;6.63;;;2.08;;
59390;SDS011;53405;57.012;40.984;2023-03-01T06:41:06;5.35;;;1.65;;
59390;SDS011;53405;57.012;40.984;2023-03-01T06:43:53;3.33;;;1.20;;
59390;SDS011;53405;57.012;40.984;2023-03-01T06:46:42;5.95;;;1.60;;
59390;SDS011;53405;57.012;40.984;2023-03-01T06:49:29;4.93;;;1.50;;
59390;SDS011;53405;57.012;40.984;2023-03-01T06:52:17;5.95;;;1.60;;
59390;SDS011;53405;57.012;40.984;2023-03-01T06:55:06;9.50;;;1.77;;
59390;SDS011;53405;57.012;40.984;2023-03-01T06:57:54;8.43;;;2.20;;
59390;SDS011;53405;57.012;40.984;2023-03-01T07:00:43;8.38;;;1.58;;
59390;SDS011;53405;57.012;40.984;2023-03-01T07:03:31;5.95;;;1.50;;
59390;SDS011;53405;57.012;40.984;2023-03-01T07:06:17;7.05;;;2.20;;
59390;SDS011;53405;57.012;40.984;2023-03-01T07:09:05;3.15;;;1.38;;
59390;SDS011;53405;57.012;40.984;2023-03-01T07:11:52;4.80;;;1.95;;
59390;SDS011;53405;57.012;40.984;2023-03-01T07:14:40;7.35;;;1.95;;
59390;SDS011;53405;57.012;40.984;2023-03-01T07:17:27;6.38;;;2.20;;
59390;SDS011;53405;57.012;40.984;2023-03-01T07:20:15;6.40;;;2.20;;
59390;SDS011;53405;57.012;40.984;2023-03-01T07:23:03;11.57;;;1.83;;
59390;SDS011;53405;57.012;40.984;2023-03-01T07:28:41;5.47;;;1.60;;
59390;SDS011;53405;57.012;40.984;2023-03-01T07:31:28;7.63;;;2.45;;
59390;SDS011;53405;57.012;40.984;2023-03-01T07:34:16;6.20;;;1.80;;
59390;SDS011;53405;57.012;40.984;2023-03-01T07:37:03;8.27;;;2.42;;
59390;SDS011;53405;57.012;40.984;2023-03-01T07:39:51;11.98;;;2.53;;
59390;SDS011;53405;57.012;40.984;2023-03-01T07:42:38;4.35;;;1.58;;
59390;SDS011;53405;57.012;40.984;2023-03-01T07:45:26;7.10;;;2.42;;
59390;SDS011;53405;57.012;40.984;2023-03-01T07:48:14;5.10;;;1.75;;
59390;SDS011;53405;57.012;40.984;2023-03-01T07:51:03;10.18;;;2.13;;
59390;SDS011;53405;57.012;40.984;2023-03-01T07:53:52;8.63;;;2.65;;
59390;SDS011;53405;57.012;40.984;2023-03-01T07:56:39;8.95;;;2.78;;
59390;SDS011;53405;57.012;40.984;2023-03-01T07:59:27;5.72;;;2.15;;
59390;SDS011;53405;57.012;40.984;2023-03-01T08:02:15;10.15;;;2.85;;
59390;SDS011;53405;57.012;40.984;2023-03-01T08:05:03;8.18;;;2.72;;
59390;SDS011;53405;57.012;40.984;2023-03-01T08:07:51;6.63;;;2.20;;
59390;SDS011;53405;57.012;40.984;2023-03-01T08:10:39;7.88;;;2.15;;
59390;SDS011;53405;57.012;40.984;2023-03-01T08:13:26;6.13;;;2.33;;
59390;SDS011;53405;57.012;40.984;2023-03-01T08:16:15;5.35;;;2.08;;
59390;SDS011;53405;57.012;40.984;2023-03-01T08:19:03;6.15;;;2.22;;
59390;SDS011;53405;57.012;40.984;2023-03-01T08:21:51;9.70;;;2.30;;
59390;SDS011;53405;57.012;40.984;2023-03-01T08:24:39;8.18;;;2.90;;
59390;SDS011;53405;57.012;40.984;2023-03-01T08:27:26;5.97;;;1.92;;
59390;SDS011;53405;57.012;40.984;2023-03-01T08:30:14;10.55;;;3.45;;
59390;SDS011;53405;57.012;40.984;2023-03-01T08:33:02;8.75;;;2.40;;
59390;SDS011;53405;57.012;40.984;2023-03-01T08:35:49;6.93;;;2.30;;
59390;SDS011;53405;57.012;40.984;2023-03-01T08:38:37;7.38;;;2.42;;
59390;SDS011;53405;57.012;40.984;2023-03-01T08:41:25;6.97;;;2.17;;
59390;SDS011;53405;57.012;40.984;2023-03-01T08:44:13;7.75;;;1.95;;
59390;SDS011;53405;57.012;40.984;2023-03-01T08:47:03;6.10;;;2.08;;
59390;SDS011;53405;57.012;40.984;2023-03-01T08:49:52;6.70;;;2.35;;
59390;SDS011;53405;57.012;40.984;2023-03-01T08:52:39;4.53;;;1.90;;
59390;SDS011;53405;57.012;40.984;2023-03-01T08:55:27;9.52;;;2.10;;
59390;SDS011;53405;57.012;40.984;2023-03-01T08:58:15;4.95;;;1.70;;
59390;SDS011;53405;57.012;40.984;2023-03-01T09:01:09;5.43;;;1.40;;
59390;SDS011;53405;57.012;40.984;2023-03-01T09:03:58;5.82;;;2.20;;
59390;SDS011;53405;57.012;40.984;2023-03-01T09:06:46;3.88;;;1.98;;
59390;SDS011;53405;57.012;40.984;2023-03-01T09:09:35;5.43;;;2.00;;
59390;SDS011;53405;57.012;40.984;2023-03-01T09:12:23;5.32;;;2.00;;
59390;SDS011;53405;57.012;40.984;2023-03-01T09:15:11;7.67;;;2.07;;
59390;SDS011;53405;57.012;40.984;2023-03-01T09:17:59;7.38;;;2.30;;
59390;SDS011;53405;57.012;40.984;2023-03-01T09:20:47;6.78;;;2.38;;
59390;SDS011;53405;57.012;40.984;2023-03-01T09:23:35;7.90;;;1.90;;
59390;SDS011;53405;57.012;40.984;2023-03-01T09:26:25;5.97;;;1.80;;
59390;SDS011;53405;57.012;40.984;2023-03-01T09:29:13;7.18;;;2.08;;
59390;SDS011;53405;57.012;40.984;2023-03-01T09:32:01;7.68;;;2.80;;
59390;SDS011;53405;57.012;40.984;2023-03-01T09:34:51;8.50;;;2.45;;
59390;SDS011;53405;57.012;40.984;2023-03-01T09:37:50;9.33;;;2.40;;
59390;SDS011;53405;57.012;40.984;2023-03-01T09:40:43;10.00;;;2.75;;
59390;SDS011;53405;57.012;40.984;2023-03-01T09:46:37;9.85;;;3.00;;
59390;SDS011;53405;57.012;40.984;2023-03-01T09:49:35;9.00;;;3.05;;
59390;SDS011;53405;57.012;40.984;2023-03-01T09:55:37;9.23;;;2.83;;
59390;SDS011;53405;57.012;40.984;2023-03-01T10:10:11;10.48;;;2.83;;
59390;SDS011;53405;57.012;40.984;2023-03-01T10:13:14;8.82;;;3.17;;
59390;SDS011;53405;57.012;40.984;2023-03-01T10:16:15;10.25;;;3.95;;
59390;SDS011;53405;57.012;40.984;2023-03-01T10:19:15;8.10;;;3.05;;
59390;SDS011;53405;57.012;40.984;2023-03-01T10:25:06;11.07;;;3.28;;
59390;SDS011;53405;57.012;40.984;2023-03-01T10:31:39;7.03;;;2.58;;
59390;SDS011;53405;57.012;40.984;2023-03-01T10:34:39;5.43;;;2.10;;
59390;SDS011;53405;57.012;40.984;2023-03-01T10:37:33;7.60;;;2.50;;
59390;SDS011;53405;57.012;40.984;2023-03-01T10:43:54;4.63;;;2.25;;
59390;SDS011;53405;57.012;40.984;2023-03-01T10:46:49;5.47;;;2.45;;
59390;SDS011;53405;57.012;40.984;2023-03-01T10:52:59;7.35;;;2.35;;
59390;SDS011;53405;57.012;40.984;2023-03-01T10:56:01;9.00;;;2.75;;
59390;SDS011;53405;57.012;40.984;2023-03-01T10:58:58;8.55;;;2.63;;
59390;SDS011;53405;57.012;40.984;2023-03-01T11:01:51;7.80;;;2.83;;
59390;SDS011;53405;57.012;40.984;2023-03-01T11:08:12;7.25;;;2.40;;
59390;SDS011;53405;57.012;40.984;2023-03-01T11:14:12;6.82;;;2.08;;
59390;SDS011;53405;57.012;40.984;2023-03-01T11:23:15;8.15;;;2.50;;
59390;SDS011;53405;57.012;40.984;2023-03-01T11:26:04;7.78;;;2.78;;
59390;SDS011;53405;57.012;40.984;2023-03-01T11:28:58;8.27;;;3.05;;
59390;SDS011;53405;57.012;40.984;2023-03-01T11:31:50;7.22;;;2.67;;
59390;SDS011;53405;57.012;40.984;2023-03-01T11:34:46;5.25;;;2.63;;
59390;SDS011;53405;57.012;40.984;2023-03-01T11:37:37;7.82;;;2.97;;
59390;SDS011;53405;57.012;40.984;2023-03-01T11:40:45;7.80;;;2.70;;
59390;SDS011;53405;57.012;40.984;2023-03-01T11:50:03;5.85;;;2.10;;
59390;SDS011;53405;57.012;40.984;2023-03-01T11:57:20;4.50;;;1.40;;
59390;SDS011;53405;57.012;40.984;2023-03-01T12:00:16;4.43;;;1.70;;
59390;SDS011;53405;57.012;40.984;2023-03-01T12:09:38;5.40;;;1.20;;
59390;SDS011;53405;57.012;40.984;2023-03-01T12:35:03;3.30;;;0.70;;
59390;SDS011;53405;57.012;40.984;2023-03-01T12:50:22;3.55;;;0.77;;
59390;SDS011;53405;57.012;40.984;2023-03-01T12:53:26;2.95;;;1.00;;
59390;SDS011;53405;57.012;40.984;2023-03-01T12:56:18;3.60;;;1.55;;
59390;SDS011;53405;57.012;40.984;2023-03-01T13:08:44;7.13;;;0.80;;
59390;SDS011;53405;57.012;40.984;2023-03-01T13:11:22;5.40;;;1.02;;
59390;SDS011;53405;57.012;40.984;2023-03-01T13:17:29;5.75;;;1.38;;
59390;SDS011;53405;57.012;40.984;2023-03-01T13:20:20;4.82;;;1.10;;
59390;SDS011;53405;57.012;40.984;2023-03-01T13:23:13;3.13;;;0.90;;
59390;SDS011;53405;57.012;40.984;2023-03-01T13:29:04;4.03;;;1.05;;
59390;SDS011;53405;57.012;40.984;2023-03-01T13:32:24;3.88;;;1.00;;
59390;SDS011;53405;57.012;40.984;2023-03-01T13:39:00;3.80;;;1.10;;
59390;SDS011;53405;57.012;40.984;2023-03-01T13:44:34;1.98;;;1.15;;
59390;SDS011;53405;57.012;40.984;2023-03-01T13:47:25;4.00;;;1.58;;
59390;SDS011;53405;57.012;40.984;2023-03-01T13:50:16;6.97;;;1.52;;
59390;SDS011;53405;57.012;40.984;2023-03-01T13:53:14;3.28;;;1.35;;
59390;SDS011;53405;57.012;40.984;2023-03-01T13:56:39;3.83;;;1.00;;
59390;SDS011;53405;57.012;40.984;2023-03-01T13:59:28;4.43;;;1.23;;
59390;SDS011;53405;57.012;40.984;2023-03-01T14:02:17;5.75;;;1.08;;
59390;SDS011;53405;57.012;40.984;2023-03-01T14:05:05;3.63;;;1.25;;
59390;SDS011;53405;57.012;40.984;2023-03-01T14:07:58;4.78;;;1.17;;
59390;SDS011;53405;57.012;40.984;2023-03-01T14:19:47;4.13;;;1.30;;
59390;SDS011;53405;57.012;40.984;2023-03-01T14:22:42;5.32;;;1.30;;
59390;SDS011;53405;57.012;40.984;2023-03-01T14:25:31;5.47;;;1.10;;
59390;SDS011;53405;57.012;40.984;2023-03-01T14:28:21;4.65;;;1.52;;
59390;SDS011;53405;57.012;40.984;2023-03-01T14:31:42;5.28;;;1.30;;
59390;SDS011;53405;57.012;40.984;2023-03-01T14:34:44;3.75;;;1.10;;
59390;SDS011;53405;57.012;40.984;2023-03-01T14:37:34;5.03;;;0.80;;
59390;SDS011;53405;57.012;40.984;2023-03-01T14:40:23;6.70;;;1.77;;
59390;SDS011;53405;57.012;40.984;2023-03-01T14:43:22;3.92;;;1.23;;
59390;SDS011;53405;57.012;40.984;2023-03-01T14:46:56;4.35;;;1.35;;
59390;SDS011;53405;57.012;40.984;2023-03-01T14:49:29;3.70;;;1.33;;
59390;SDS011;53405;57.012;40.984;2023-03-01T14:52:20;4.28;;;1.52;;
59390;SDS011;53405;57.012;40.984;2023-03-01T14:55:20;4.15;;;1.35;;
59390;SDS011;53405;57.012;40.984;2023-03-01T14:58:14;2.83;;;1.10;;
59390;SDS011;53405;57.012;40.984;2023-03-01T15:06:09;3.75;;;1.08;;
59390;SDS011;53405;57.012;40.984;2023-03-01T15:09:01;3.22;;;1.20;;
59390;SDS011;53405;57.012;40.984;2023-03-01T15:11:48;4.50;;;1.10;;
59390;SDS011;53405;57.012;40.984;2023-03-01T15:14:40;4.88;;;1.40;;
59390;SDS011;53405;57.012;40.984;2023-03-01T15:17:38;8.68;;;1.98;;
59390;SDS011;53405;57.012;40.984;2023-03-01T15:20:27;4.05;;;1.15;;
59390;SDS011;53405;57.012;40.984;2023-03-01T15:23:35;2.58;;;0.82;;
59390;SDS011;53405;57.012;40.984;2023-03-01T15:26:30;6.03;;;1.13;;
59390;SDS011;53405;57.012;40.984;2023-03-01T15:29:24;3.85;;;1.10;;
59390;SDS011;53405;57.012;40.984;2023-03-01T15:32:30;3.83;;;1.10;;
59390;SDS011;53405;57.012;40.984;2023-03-01T15:35:37;2.45;;;0.75;;
59390;SDS011;53405;57.012;40.984;2023-03-01T15:38:31;3.65;;;1.27;;
59390;SDS011;53405;57.012;40.984;2023-03-01T15:41:30;3.42;;;1.10;;
59390;SDS011;53405;57.012;40.984;2023-03-01T15:44:29;2.73;;;1.00;;
59390;SDS011;53405;57.012;40.984;2023-03-01T15:47:29;5.47;;;0.95;;
59390;SDS011;53405;57.012;40.984;2023-03-01T15:50:19;5.65;;;1.23;;
59390;SDS011;53405;57.012;40.984;2023-03-01T15:53:11;1.77;;;1.35;;
59390;SDS011;53405;57.012;40.984;2023-03-01T15:56:03;3.45;;;1.08;;
59390;SDS011;53405;57.012;40.984;2023-03-01T15:58:57;4.90;;;1.20;;
59390;SDS011;53405;57.012;40.984;2023-03-01T16:01:46;4.45;;;1.30;;
59390;SDS011;53405;57.012;40.984;2023-03-01T16:04:38;4.82;;;1.20;;
59390;SDS011;53405;57.012;40.984;2023-03-01T16:07:26;4.50;;;1.25;;
59390;SDS011;53405;57.012;40.984;2023-03-01T16:10:15;6.27;;;1.67;;
59390;SDS011;53405;57.012;40.984;2023-03-01T16:13:03;5.22;;;1.50;;
59390;SDS011;53405;57.012;40.984;2023-03-01T16:15:51;2.65;;;0.75;;
59390;SDS011;53405;57.012;40.984;2023-03-01T16:18:39;4.75;;;1.30;;
59390;SDS011;53405;57.012;40.984;2023-03-01T16:21:27;4.10;;;0.85;;
59390;SDS011;53405;57.012;40.984;2023-03-01T16:24:16;5.60;;;1.50;;
59390;SDS011;53405;57.012;40.984;2023-03-01T16:27:04;4.40;;;0.90;;
59390;SDS011;53405;57.012;40.984;2023-03-01T16:29:51;2.78;;;0.90;;
59390;SDS011;53405;57.012;40.984;2023-03-01T16:32:39;2.85;;;1.10;;
59390;SDS011;53405;57.012;40.984;2023-03-01T16:35:31;2.72;;;0.75;;
59390;SDS011;53405;57.012;40.984;2023-03-01T16:38:19;3.03;;;0.65;;
59390;SDS011;53405;57.012;40.984;2023-03-01T16:41:11;2.50;;;1.08;;
59390;SDS011;53405;57.012;40.984;2023-03-01T16:44:00;3.30;;;1.20;;
59390;SDS011;53405;57.012;40.984;2023-03-01T16:46:48;7.13;;;1.80;;
59390;SDS011;53405;57.012;40.984;2023-03-01T16:52:49;4.70;;;1.38;;
59390;SDS011;53405;57.012;40.984;2023-03-01T16:55:38;6.07;;;1.50;;
59390;SDS011;53405;57.012;40.984;2023-03-01T16:58:32;4.18;;;1.67;;
59390;SDS011;53405;57.012;40.984;2023-03-01T17:01:20;2.30;;;0.93;;
59390;SDS011;53405;57.012;40.984;2023-03-01T17:04:11;4.20;;;1.20;;
59390;SDS011;53405;57.012;40.984;2023-03-01T17:06:59;3.90;;;1.13;;
59390;SDS011;53405;57.012;40.984;2023-03-01T17:09:47;3.33;;;1.30;;
59390;SDS011;53405;57.012;40.984;2023-03-01T17:15:24;6.35;;;1.10;;
59390;SDS011;53405;57.012;40.984;2023-03-01T17:18:12;2.97;;;1.08;;
59390;SDS011;53405;57.012;40.984;2023-03-01T17:20:59;2.15;;;0.80;;
59390;SDS011;53405;57.012;40.984;2023-03-01T17:23:47;4.47;;;1.10;;
59390;SDS011;53405;57.012;40.984;2023-03-01T17:26:36;1.27;;;0.70;;
59390;SDS011;53405;57.012;40.984;2023-03-01T17:29:23;3.28;;;1.05;;
59390;SDS011;53405;57.012;40.984;2023-03-01T17:32:11;5.22;;;1.30;;
59390;SDS011;53405;57.012;40.984;2023-03-01T17:34:59;4.15;;;1.10;;
59390;SDS011;53405;57.012;40.984;2023-03-01T17:37:49;2.83;;;0.90;;
59390;SDS011;53405;57.012;40.984;2023-03-01T17:40:36;4.72;;;0.90;;
59390;SDS011;53405;57.012;40.984;2023-03-01T17:43:24;5.40;;;1.60;;
59390;SDS011;53405;57.012;40.984;2023-03-01T17:46:12;1.00;;;0.52;;
59390;SDS011;53405;57.012;40.984;2023-03-01T17:49:00;4.90;;;1.05;;
59390;SDS011;53405;57.012;40.984;2023-03-01T17:51:47;2.30;;;0.82;;
59390;SDS011;53405;57.012;40.984;2023-03-01T17:54:35;2.92;;;0.90;;
59390;SDS011;53405;57.012;40.984;2023-03-01T17:57:22;2.72;;;0.88;;
59390;SDS011;53405;57.012;40.984;2023-03-01T18:00:10;3.78;;;0.90;;
59390;SDS011;53405;57.012;40.984;2023-03-01T18:03:00;6.65;;;1.00;;
59390;SDS011;53405;57.012;40.984;2023-03-01T18:05:48;3.70;;;1.00;;
59390;SDS011;53405;57.012;40.984;2023-03-01T18:08:36;3.70;;;0.70;;
59390;SDS011;53405;57.012;40.984;2023-03-01T18:11:24;4.35;;;1.00;;
59390;SDS011;53405;57.012;40.984;2023-03-01T18:14:12;2.88;;;0.80;;
59390;SDS011;53405;57.012;40.984;2023-03-01T18:16:59;5.30;;;1.00;;
59390;SDS011;53405;57.012;40.984;2023-03-01T18:19:50;1.80;;;0.70;;
59390;SDS011;53405;57.012;40.984;2023-03-01T18:22:37;4.10;;;1.05;;
59390;SDS011;53405;57.012;40.984;2023-03-01T18:25:25;2.47;;;0.60;;
59390;SDS011;53405;57.012;40.984;2023-03-01T18:28:13;2.60;;;0.88;;
59390;SDS011;53405;57.012;40.984;2023-03-01T18:31:02;3.72;;;1.30;;
59390;SDS011;53405;57.012;40.984;2023-03-01T18:33:54;3.58;;;1.02;;
59390;SDS011;53405;57.012;40.984;2023-03-01T18:36:42;2.85;;;0.93;;
59390;SDS011;53405;57.012;40.984;2023-03-01T18:39:33;2.70;;;0.80;;
59390;SDS011;53405;57.012;40.984;2023-03-01T18:42:21;2.53;;;0.70;;
59390;SDS011;53405;57.012;40.984;2023-03-01T18:45:10;5.40;;;1.13;;
59390;SDS011;53405;57.012;40.984;2023-03-01T18:48:01;1.70;;;0.68;;
59390;SDS011;53405;57.012;40.984;2023-03-01T18:50:48;3.50;;;0.90;;
59390;SDS011;53405;57.012;40.984;2023-03-01T18:53:41;1.73;;;0.75;;
59390;SDS011;53405;57.012;40.984;2023-03-01T18:56:35;3.25;;;1.00;;
59390;SDS011;53405;57.012;40.984;2023-03-01T18:59:23;2.50;;;1.10;;
59390;SDS011;53405;57.012;40.984;2023-03-01T19:02:10;2.90;;;0.80;;
59390;SDS011;53405;57.012;40.984;2023-03-01T19:05:01;2.83;;;0.70;;
59390;SDS011;53405;57.012;40.984;2023-03-01T19:07:49;3.17;;;0.98;;
59390;SDS011;53405;57.012;40.984;2023-03-01T19:10:38;2.20;;;0.80;;
59390;SDS011;53405;57.012;40.984;2023-03-01T19:13:26;3.15;;;0.85;;
59390;SDS011;53405;57.012;40.984;2023-03-01T19:16:15;4.40;;;1.02;;
59390;SDS011;53405;57.012;40.984;2023-03-01T19:19:06;4.82;;;1.00;;
59390;SDS011;53405;57.012;40.984;2023-03-01T19:21:56;4.18;;;1.13;;
59390;SDS011;53405;57.012;40.984;2023-03-01T19:24:51;7.25;;;2.55;;
59390;SDS011;53405;57.012;40.984;2023-03-01T19:27:39;2.72;;;1.00;;
59390;SDS011;53405;57.012;40.984;2023-03-01T19:30:27;4.80;;;1.02;;
59390;SDS011;53405;57.012;40.984;2023-03-01T19:33:14;4.63;;;1.35;;
59390;SDS011;53405;57.012;40.984;2023-03-01T19:36:02;3.13;;;0.90;;
59390;SDS011;53405;57.012;40.984;2023-03-01T19:38:50;4.30;;;0.90;;